Time,TemperatureF,DewpointF,PressureIn,WindDirection,WindDirectionDegrees,WindSpeedMPH,WindSpeedGustMPH,Humidity,HourlyPrecipIn,Conditions,Clouds,dailyrainin,SoftwareType,DateUTC
2013-07-31 00:03:00,67.3,66.7,30.11,South,180,0.0,-999.0,98,-99.99,,,0.00,Acu-Link.com,2013-07-31 04:03:00,
2013-07-31 00:18:00,67.3,66.7,30.12,WSW,247,0.0,-999.0,98,-99.99,,,0.00,Acu-Link.com,2013-07-31 04:18:00,
2013-07-31 00:33:00,67.3,66.7,30.11,WSW,247,0.0,-999.0,98,-99.99,,,0.00,Acu-Link.com,2013-07-31 04:33:00,
2013-07-31 00:49:00,67.3,66.7,30.11,WSW,247,0.0,-999.0,98,-99.99,,,0.00,Acu-Link.com,2013-07-31 04:49:00,
2013-07-31 01:04:00,67.5,66.9,30.10,WSW,247,0.0,-999.0,98,-99.99,,,0.00,Acu-Link.com,2013-07-31 05:04:00,
2013-07-31 01:19:00,67.5,66.9,30.10,West,270,0.0,-999.0,98,-99.99,,,0.00,Acu-Link.com,2013-07-31 05:19:00,
2013-07-31 01:34:00,67.5,66.9,30.10,West,270,0.0,-999.0,98,-99.99,,,0.00,Acu-Link.com,2013-07-31 05:34:00,
2013-07-31 01:50:00,67.5,66.9,30.09,West,270,0.0,-999.0,98,-99.99,,,0.00,Acu-Link.com,2013-07-31 05:50:00,
2013-07-31 02:05:00,67.3,66.7,30.08,West,270,1.7,-999.0,98,-99.99,,,0.00,Acu-Link.com,2013-07-31 06:05:00,
2013-07-31 02:20:00,67.1,66.5,30.08,West,270,0.0,-999.0,98,-99.99,,,0.00,Acu-Link.com,2013-07-31 06:20:00,
2013-07-31 02:36:00,66.9,66.3,30.09,West,270,0.0,-999.0,98,-99.99,,,0.00,Acu-Link.com,2013-07-31 06:36:00,
2013-07-31 03:06:00,66.7,66.1,30.07,West,270,0.0,-999.0,98,-99.99,,,0.00,Acu-Link.com,2013-07-31 07:06:00,
2013-07-31 03:22:00,66.7,66.1,30.07,West,270,1.1,-999.0,98,-99.99,,,0.00,Acu-Link.com,2013-07-31 07:22:00,
2013-07-31 03:37:00,66.7,66.1,30.07,West,270,0.0,-999.0,98,-99.99,,,0.00,Acu-Link.com,2013-07-31 07:37:00,
2013-07-31 03:52:00,66.7,66.1,30.07,West,270,0.0,-999.0,98,-99.99,,,0.01,Acu-Link.com,2013-07-31 07:52:00,
2013-07-31 04:07:00,66.7,66.1,30.08,West,270,0.0,-999.0,98,-99.99,,,0.01,Acu-Link.com,2013-07-31 08:07:00,
2013-07-31 04:22:00,66.7,66.1,30.07,West,270,0.0,-999.0,98,-99.99,,,0.02,Acu-Link.com,2013-07-31 08:22:00,
2013-07-31 04:37:00,66.7,66.1,30.07,West,270,0.0,-999.0,98,-99.99,,,0.04,Acu-Link.com,2013-07-31 08:37:00,
2013-07-31 04:53:00,66.7,66.1,30.07,SW,225,0.0,-999.0,98,-99.99,,,0.10,Acu-Link.com,2013-07-31 08:53:00,
2013-07-31 05:08:00,66.9,66.3,30.07,WNW,292,0.0,-999.0,98,-99.99,,,0.13,Acu-Link.com,2013-07-31 09:08:00,
2013-07-31 05:23:00,66.9,66.3,30.07,SW,225,0.0,-999.0,98,-99.99,,,0.16,Acu-Link.com,2013-07-31 09:23:00,
2013-07-31 05:39:00,66.9,66.3,30.06,SSE,157,0.0,-999.0,98,-99.99,,,0.18,Acu-Link.com,2013-07-31 09:39:00,
2013-07-31 05:54:00,66.9,66.3,30.06,West,270,0.0,-999.0,98,-99.99,,,0.18,Acu-Link.com,2013-07-31 09:54:00,
2013-07-31 06:09:00,66.7,66.1,30.07,NW,315,0.0,-999.0,98,-99.99,,,0.18,Acu-Link.com,2013-07-31 10:09:00,
2013-07-31 06:24:00,66.6,66.0,30.06,North,0,0.0,-999.0,98,-99.99,,,0.18,Acu-Link.com,2013-07-31 10:24:00,
2013-07-31 06:40:00,66.4,65.8,30.07,NNE,22,0.0,-999.0,98,-99.99,,,0.18,Acu-Link.com,2013-07-31 10:40:00,
2013-07-31 06:55:00,66.2,65.6,30.07,ESE,112,0.0,-999.0,98,-99.99,,,0.18,Acu-Link.com,2013-07-31 10:55:00,
2013-07-31 07:10:00,66.2,65.6,30.07,ESE,112,0.0,-999.0,98,-99.99,,,0.18,Acu-Link.com,2013-07-31 11:10:00,
2013-07-31 07:26:00,66.2,65.6,30.08,ESE,112,0.0,-999.0,98,-99.99,,,0.18,Acu-Link.com,2013-07-31 11:26:00,
2013-07-31 07:41:00,66.4,65.8,30.07,ESE,112,0.0,-999.0,98,-99.99,,,0.18,Acu-Link.com,2013-07-31 11:41:00,
2013-07-31 07:56:00,66.4,65.8,30.08,East,90,1.7,-999.0,98,-99.99,,,0.19,Acu-Link.com,2013-07-31 11:56:00,
2013-07-31 08:12:00,66.4,65.8,30.07,SE,135,0.0,-999.0,98,-99.99,,,0.21,Acu-Link.com,2013-07-31 12:12:00,
2013-07-31 08:27:00,66.6,66.0,30.07,ESE,112,0.0,-999.0,98,-99.99,,,0.21,Acu-Link.com,2013-07-31 12:27:00,
2013-07-31 08:42:00,66.6,66.0,30.07,ESE,112,0.0,-999.0,98,-99.99,,,0.21,Acu-Link.com,2013-07-31 12:42:00,
2013-07-31 08:58:00,66.6,66.0,30.07,SSE,157,0.0,-999.0,98,-99.99,,,0.21,Acu-Link.com,2013-07-31 12:58:00,
2013-07-31 09:13:00,66.9,66.3,30.08,SE,135,1.7,-999.0,98,-99.99,,,0.21,Acu-Link.com,2013-07-31 13:13:00,
2013-07-31 09:28:00,67.1,66.5,30.08,ESE,112,0.0,-999.0,98,-99.99,,,0.21,Acu-Link.com,2013-07-31 13:28:00,
2013-07-31 09:44:00,67.5,66.9,30.08,ESE,112,0.0,-999.0,98,-99.99,,,0.21,Acu-Link.com,2013-07-31 13:44:00,
2013-07-31 09:59:00,68.0,67.4,30.07,SE,135,0.0,-999.0,98,-99.99,,,0.21,Acu-Link.com,2013-07-31 13:59:00,
2013-07-31 10:14:00,67.8,67.2,30.06,SSE,157,0.0,-999.0,98,-99.99,,,0.21,Acu-Link.com,2013-07-31 14:14:00,
2013-07-31 10:29:00,68.0,67.4,30.07,ESE,112,0.0,-999.0,98,-99.99,,,0.21,Acu-Link.com,2013-07-31 14:29:00,
2013-07-31 10:44:00,68.4,67.8,30.06,ESE,112,1.7,-999.0,98,-99.99,,,0.21,Acu-Link.com,2013-07-31 14:44:00,
2013-07-31 11:00:00,68.7,68.1,30.06,SE,135,1.1,-999.0,98,-99.99,,,0.21,Acu-Link.com,2013-07-31 15:00:00,
2013-07-31 11:15:00,68.7,68.1,30.06,ESE,112,2.2,-999.0,98,-99.99,,,0.21,Acu-Link.com,2013-07-31 15:15:00,
2013-07-31 11:30:00,69.8,69.2,30.06,ESE,112,1.1,-999.0,98,-99.99,,,0.21,Acu-Link.com,2013-07-31 15:30:00,
2013-07-31 11:46:00,70.2,69.6,30.04,ESE,112,2.7,-999.0,98,-99.99,,,0.21,Acu-Link.com,2013-07-31 15:46:00,
2013-07-31 12:01:00,73.9,73.3,30.04,SSE,157,2.2,-999.0,98,-99.99,,,0.21,Acu-Link.com,2013-07-31 16:01:00,
2013-07-31 12:16:00,76.5,75.9,30.04,SE,135,3.2,-999.0,98,-99.99,,,0.21,Acu-Link.com,2013-07-31 16:16:00,
2013-07-31 12:31:00,77.0,76.4,30.03,SSE,157,4.2,-999.0,98,-99.99,,,0.21,Acu-Link.com,2013-07-31 16:31:00,
2013-07-31 12:46:00,76.3,75.7,30.04,ESE,112,2.7,-999.0,98,-99.99,,,0.21,Acu-Link.com,2013-07-31 16:46:00,
2013-07-31 13:01:00,73.8,73.2,30.03,SSE,157,1.1,-999.0,98,-99.99,,,0.21,Acu-Link.com,2013-07-31 17:01:00,
2013-07-31 13:17:00,72.1,71.5,30.02,SE,135,2.7,-999.0,98,-99.99,,,0.21,Acu-Link.com,2013-07-31 17:17:00,
2013-07-31 13:32:00,72.5,71.9,30.03,East,90,3.7,-999.0,98,-99.99,,,0.21,Acu-Link.com,2013-07-31 17:32:00,
2013-07-31 13:47:00,71.8,71.2,30.02,SSE,157,2.2,-999.0,98,-99.99,,,0.21,Acu-Link.com,2013-07-31 17:47:00,
2013-07-31 14:03:00,71.4,70.8,30.01,SE,135,0.0,-999.0,98,-99.99,,,0.21,Acu-Link.com,2013-07-31 18:03:00,
2013-07-31 14:18:00,71.1,70.5,30.00,SE,135,0.0,-999.0,98,-99.99,,,0.21,Acu-Link.com,2013-07-31 18:18:00,
2013-07-31 14:33:00,71.6,71.0,29.99,SSE,157,2.7,-999.0,98,-99.99,,,0.21,Acu-Link.com,2013-07-31 18:33:00,
2013-07-31 14:49:00,73.0,72.4,29.99,ESE,112,2.7,-999.0,98,-99.99,,,0.21,Acu-Link.com,2013-07-31 18:49:00,
2013-07-31 15:04:00,75.0,74.4,30.00,West,270,0.0,-999.0,98,-99.99,,,0.21,Acu-Link.com,2013-07-31 19:04:00,
2013-07-31 15:19:00,73.9,73.3,29.99,SSE,157,0.0,-999.0,98,-99.99,,,0.21,Acu-Link.com,2013-07-31 19:19:00,
2013-07-31 15:34:00,72.9,72.3,29.98,West,270,1.1,-999.0,98,-99.99,,,0.21,Acu-Link.com,2013-07-31 19:34:00,
2013-07-31 15:50:00,74.3,73.7,29.96,South,180,1.1,-999.0,98,-99.99,,,0.21,Acu-Link.com,2013-07-31 19:50:00,
2013-07-31 16:05:00,77.9,77.3,29.97,ENE,67,1.1,-999.0,98,-99.99,,,0.21,Acu-Link.com,2013-07-31 20:05:00,
2013-07-31 16:20:00,77.9,77.3,29.95,South,180,2.2,-999.0,98,-99.99,,,0.21,Acu-Link.com,2013-07-31 20:20:00,
2013-07-31 16:36:00,77.5,76.9,29.95,SSE,157,1.1,-999.0,98,-99.99,,,0.21,Acu-Link.com,2013-07-31 20:36:00,
2013-07-31 16:51:00,77.2,76.6,29.93,SSE,157,2.7,-999.0,98,-99.99,,,0.21,Acu-Link.com,2013-07-31 20:51:00,
2013-07-31 17:06:00,76.5,75.9,29.94,SSE,157,1.7,-999.0,98,-99.99,,,0.21,Acu-Link.com,2013-07-31 21:06:00,
2013-07-31 17:22:00,75.9,75.3,29.92,SE,135,2.2,-999.0,98,-99.99,,,0.21,Acu-Link.com,2013-07-31 21:22:00,
2013-07-31 17:52:00,78.3,77.7,29.93,ESE,112,0.0,-999.0,98,-99.99,,,0.21,Acu-Link.com,2013-07-31 21:52:00,
2013-07-31 18:08:00,79.0,78.4,29.93,East,90,0.0,-999.0,98,-99.99,,,0.21,Acu-Link.com,2013-07-31 22:08:00,
2013-07-31 18:23:00,78.4,77.8,29.92,SW,225,0.0,-999.0,98,-99.99,,,0.21,Acu-Link.com,2013-07-31 22:23:00,
2013-07-31 18:38:00,77.4,76.8,29.92,SE,135,1.1,-999.0,98,-99.99,,,0.21,Acu-Link.com,2013-07-31 22:38:00,
2013-07-31 18:54:00,75.0,74.4,29.92,ESE,112,0.0,-999.0,98,-99.99,,,0.21,Acu-Link.com,2013-07-31 22:54:00,
2013-07-31 19:09:00,74.1,73.5,29.92,SSE,157,0.0,-999.0,98,-99.99,,,0.21,Acu-Link.com,2013-07-31 23:09:00,
2013-07-31 19:24:00,72.1,71.5,29.93,SSE,157,0.0,-999.0,98,-99.99,,,0.21,Acu-Link.com,2013-07-31 23:24:00,
2013-07-31 19:39:00,71.6,71.0,29.94,ESE,112,0.0,-999.0,98,-99.99,,,0.21,Acu-Link.com,2013-07-31 23:39:00,
2013-07-31 19:55:00,70.7,70.1,29.94,SSE,157,0.0,-999.0,98,-99.99,,,0.21,Acu-Link.com,2013-07-31 23:55:00,
2013-07-31 20:10:00,70.0,69.4,29.94,ENE,67,0.0,-999.0,98,-99.99,,,0.21,Acu-Link.com,2013-08-01 00:10:00,
2013-07-31 20:26:00,69.3,68.7,29.95,SSE,157,1.7,-999.0,98,-99.99,,,0.21,Acu-Link.com,2013-08-01 00:26:00,
2013-07-31 20:56:00,68.7,68.1,29.94,East,90,0.0,-999.0,98,-99.99,,,0.21,Acu-Link.com,2013-08-01 00:56:00,
2013-07-31 21:12:00,68.4,67.8,29.95,NE,45,0.0,-999.0,98,-99.99,,,0.21,Acu-Link.com,2013-08-01 01:12:00,
2013-07-31 21:27:00,68.2,67.6,29.96,SSE,157,0.0,-999.0,98,-99.99,,,0.21,Acu-Link.com,2013-08-01 01:27:00,
2013-07-31 21:42:00,68.0,67.4,29.95,South,180,0.0,-999.0,98,-99.99,,,0.21,Acu-Link.com,2013-08-01 01:42:00,
2013-07-31 21:58:00,67.6,67.0,29.95,SE,135,0.0,-999.0,98,-99.99,,,0.21,Acu-Link.com,2013-08-01 01:58:00,
2013-07-31 22:13:00,67.5,66.9,29.96,ESE,112,0.0,-999.0,98,-99.99,,,0.21,Acu-Link.com,2013-08-01 02:13:00,
2013-07-31 22:29:00,67.5,66.9,29.93,SSE,157,0.0,-999.0,98,-99.99,,,0.21,Acu-Link.com,2013-08-01 02:29:00,
2013-07-31 22:44:00,67.3,66.7,29.95,WSW,247,0.0,-999.0,98,-99.99,,,0.21,Acu-Link.com,2013-08-01 02:44:00,
2013-07-31 22:59:00,67.5,66.9,29.94,SSE,157,0.0,-999.0,98,-99.99,,,0.21,Acu-Link.com,2013-08-01 02:59:00,
2013-07-31 23:14:00,67.5,66.9,29.93,SE,135,1.1,-999.0,98,-99.99,,,0.21,Acu-Link.com,2013-08-01 03:14:00,
2013-07-31 23:29:00,67.3,66.7,29.92,NNE,22,0.0,-999.0,98,-99.99,,,0.21,Acu-Link.com,2013-08-01 03:29:00,
2013-07-31 23:45:00,67.3,66.7,29.92,NNW,337,0.0,-999.0,98,-99.99,,,0.21,Acu-Link.com,2013-08-01 03:45:00,